Sierra Vista, AZ (85650)

1:42 AM MST on August 02, 2015 (GMT -0700)
Canyon De Flores -Cochise County (N0NBH) | | Change Station
CLOSE
Current Station
Personal Weather Station
Location: Sierra Vista, AZ
Elevation: 4645 ft
Nearby Weather Stations

Elev 4645 ft 31.50 °N, 110.26 °W | Updated 32 seconds ago

Overcast
Overcast
66.7 °F
Feels Like 66.7 °F
N
0.0
Wind Variable Wind from South
Gusts 0.0 mph

Today
High -- | Low -- °F
--% Chance of Precip.
Yesterday
High -- | Low -- °F
Precip. -- in
5:37 AM 7:16 PM
Waning Gibbous, 95% visible
Pressure 30.11 in
Visibility 10.0 miles
Clouds Few 7500 ft
Mostly Cloudy 9000 ft
Mostly Cloudy 12000 ft
Dew Point 62 °F
Humidity 86%
Rainfall 0.00 in
Snow Depth Not available.
UV 0 out of 12
Pollen 3.60 out of 12
Air Quality Not available.
Flu Activity Not available.
SPECI KFHU 020807Z AUTO 26003KT 10SM FEW075 BKN090 BKN120 20/17 A3011 RMK AO2 RAE07

More Conditions Fewer Conditions

Pressure 30.11 in
Visibility 10.0 miles
Clouds Few 7500 ft
Mostly Cloudy 9000 ft
Mostly Cloudy 12000 ft
Dew Point 62 °F
Humidity 86%
Rainfall 0.00 in
Snow Depth Not available.
UV 0 out of 12
Pollen 3.60 out of 12
Air Quality Not available.
Flu Activity Not available.
SPECI KFHU 020807Z AUTO 26003KT 10SM FEW075 BKN090 BKN120 20/17 A3011 RMK AO2 RAE07

More Conditions Fewer Conditions

10-Day Weather Forecast

×

Almanac

Astronomy

Aug. 02, 2015 Rise Set
Actual Time
Civil Twilight
Nautical Twilight
Astronomical Twilight
Moon
Length of Visible Light
Length of Day
Tomorrow will be .
, % of the Moon is Illuminated

Today's Extremes

State Highs State Lows

Community

WunderPhotos

Upload Photos

1,843,208 photos uploaded!

WunderBlogs® & News

Nearby

Air Quality

  Air Quality AQ Index Pollutant
Not available.

Snow Depth

Station Depth Elevation

Earthquake Activity

City Distance Mag. Time & Date
Minimum magnitude displayed is 2.5.

Coastal Water Temperatures

Place Temperature

Stations

Nearby Weather Stations

Station Location Temp. Windchill Dew Point Humidity Wind Precip. Elev Updated Type